Have a Safe July 4th! 

Flight Track Log - Related Links

Times and Time Zones

All times are in EDT time to prevent confusion due to time zone crossing. See the ASQ4356 flight status page for this flight to view local times or setup timezone preferences in your user account.

Time Position Orientation Groundspeed Altitude Reporting Facility
EDT Latitude Longitude Course Direction KTS MPH feet Rate Location/Type
Sat 08:02:52 PM 29.9642 -95.3481 190° South 165 190 700  Level Houston Center
Sat 08:03:35 PM 29.9333 -95.3542 190° South 197 227 2,000 1,558 Climbing Houston Center
Sat 08:04:36 PM 29.9381 -95.4308 274° West 271 312 3,400 1,733 Climbing Houston Center
Sat 08:05:50 PM 29.9600 -95.5250 285° West 263 303 5,900 2,222 Climbing Houston Center
Sat 08:06:51 PM 29.9775 -95.6108 283° West 274 315 8,400 2,098 Climbing Houston Center
Sat 08:07:53 PM 29.9956 -95.6967 284° West 276 318 10,200 1,317 Climbing Houston Center
Sat 08:08:54 PM 30.0167 -95.7933 284° West 311 358 11,100 1,073 Climbing Houston Center
Sat 08:09:56 PM 30.0422 -95.9233 283° West 345 397 12,400 1,415 Climbing Houston Center
Sat 08:10:57 PM 30.0647 -96.0331 283° West 352 405 14,000 1,610 Climbing Houston Center
Sat 08:11:59 PM 30.0806 -96.1264 281° West 341 392 15,700 1,902 Climbing Houston Center
Sat 08:13:00 PM 30.0997 -96.2522 280° West 333 383 17,900 2,049 Climbing Houston Center
Sat 08:14:02 PM 30.1153 -96.3517 280° West 321 369 19,900 1,659 Climbing Houston Center
Sat 08:15:03 PM 30.1317 -96.4583 280° West 319 367 21,300 1,220 Climbing Houston Center
Sat 08:16:05 PM 30.1483 -96.5656 280° West 332 382 22,400 1,024 Climbing Houston Center
Sat 08:17:06 PM 30.1653 -96.6783 280° West 348 400 23,400 976 Climbing Houston Center
Sat 08:18:08 PM 30.1819 -96.7936 280° West 357 411 24,400 976 Climbing Houston Center
Sat 08:19:09 PM 30.1994 -96.9167 279° West 378 435 25,400 934 Climbing Houston Center
Sat 08:20:10 PM 30.2181 -97.0392 280° West 383 441 26,300 927 Climbing Houston Center
Sat 08:21:12 PM 30.2361 -97.1636 280° West 387 445 27,300 976 Climbing Houston Center
Sat 08:22:13 PM 30.2550 -97.2886 280° West 390 449 28,300 927 Climbing Houston Center
Sat 08:23:15 PM 30.2733 -97.4144 280° West 392 451 29,200 927 Climbing Houston Center
Sat 08:24:16 PM 30.2911 -97.5411 279° West 393 452 30,200 984 Climbing Houston Center
Sat 08:25:17 PM 30.3094 -97.6700 279° West 399 459 31,200 732 Climbing Houston Center
Sat 08:26:19 PM 30.3289 -97.7989 280° West 402 463 31,700 390 Climbing Houston Center
Sat 08:27:20 PM 30.3464 -97.9336 279° West 414 476 32,000 146 Climbing Houston Center
Sat 08:28:22 PM 30.3667 -98.0758 279° West 434 499 32,000  Level Houston Center
Sat 08:29:23 PM 30.4139 -98.2131 292° West 451 519 32,000  Level Houston Center
Sat 08:30:24 PM 30.4692 -98.3483 295° West 456 525 32,000  Level Houston Center
Sat 08:31:26 PM 30.5236 -98.4850 295° West 461 531 32,000  Level Houston Center
Sat 08:32:27 PM 30.5886 -98.6428 296° West 459 528 32,000  Level Houston Center
Sat 08:33:28 PM 30.6431 -98.7775 295° West 457 526 32,000  Level Houston Center
Sat 08:34:29 PM 30.6956 -98.9131 294° West 455 524 32,000  Level Houston Center
Sat 08:35:31 PM 30.7486 -99.0478 295° West 455 524 32,000  Level Houston Center
Sat 08:36:32 PM 30.8050 -99.1869 295° West 459 528 32,000  Level Houston Center
Sat 08:37:33 PM 30.8578 -99.3214 295° West 460 529 32,000  Level Houston Center
Sat 08:38:35 PM 30.9103 -99.4572 294° West 461 531 32,000  Level Houston Center
Sat 08:39:36 PM 30.9647 -99.5933 295° West 464 534 32,000  Level Houston Center
Sat 08:40:37 PM 31.0161 -99.7289 294° West 472 543 32,000  Level Houston Center
Sat 08:41:38 PM 31.0697 -99.8681 294° West 474 545 32,000  Level Houston Center
Sat 08:42:40 PM 31.1233 -100.0047 295° West 480 552 32,000  Level Houston Center
Sat 08:43:41 PM 31.1756 -100.1439 294° West 483 556 32,000  Level Houston Center
Sat 08:44:42 PM 31.2392 -100.3056 295° West 467 537 32,000  Level Houston Center
Sat 08:45:43 PM 31.2925 -100.4481 294° West 486 559 32,000 -246 Level Houston Center
Sat 08:46:44 PM 31.3447 -100.5864 294° West 480 552 31,500 -1,138 Descending Houston Center
Sat 08:47:39 PM 31.3875 -100.6983 294° West 461 531 29,800 -1,930 Descending Fort Worth Center
Sat 08:48:39 PM 31.4381 -100.8342 294° West 456 525 27,800 -2,100 Descending Fort Worth Center
Sat 08:49:39 PM 31.4886 -100.9675 294° West 450 518 25,600 -2,400 Descending Fort Worth Center
Sat 08:50:39 PM 31.5411 -101.1036 294° West 450 518 23,000 -2,550 Descending Fort Worth Center
Sat 08:51:39 PM 31.5894 -101.2372 293° West 450 518 20,500 -2,550 Descending Fort Worth Center
Sat 08:52:39 PM 31.6358 -101.3561 295° West 429 494 17,900 -2,550 Descending Fort Worth Center
Sat 08:53:39 PM 31.6781 -101.4728 293° West 405 466 15,400 -2,100 Descending Fort Worth Center
Sat 08:54:39 PM 31.7242 -101.5897 295° West 398 458 13,700 -1,850 Descending Fort Worth Center
Sat 08:55:39 PM 31.7711 -101.6844 300° West 370 426 11,700 -1,800 Descending Fort Worth Center
Sat 08:56:39 PM 31.8181 -101.7747 301° West 345 397 10,100 -1,550 Descending Fort Worth Center
Sat 08:57:39 PM 31.8611 -101.8575 301° West 319 367 8,600 -1,550 Descending Fort Worth Center
Sat 08:58:39 PM 31.9042 -101.9378 302° West 301 346 7,000 -1,500 Descending Fort Worth Center
Sat 08:59:39 PM 31.9453 -102.0183 301° West 296 341 5,600 -1,400 Descending Fort Worth Center

Login

Don't have an account? Register now (free) for customized features, flight alerts, and more!